Time;durP1;ratioP1;P1;durP2;ratioP2;P2;SDS_P1;SDS_P2;PMS_P1;PMS_P2;Temp;Humidity;BMP_temperature;BMP_pressure;BME280_temperature;BME280_humidity;BME280_pressure;Samples;Min_cycle;Max_cycle;Signal;HPM_P1;HPM_P2
2021/06/29 00:02:00;;;;;;;18.85;5.13;;;;;;;17.59;72.08;99281.74;129784;1093;22540;-64
2021/06/29 00:04:29;;;;;;;16.60;6.00;;;;;;;17.57;72.09;99283.17;129696;1093;113845;-65
2021/06/29 00:06:57;;;;;;;11.78;4.98;;;;;;;17.54;72.14;99283.78;129777;1093;22543;-64
2021/06/29 00:09:26;;;;;;;17.35;6.18;;;;;;;17.50;72.28;99291.03;129793;1093;22643;-64
2021/06/29 00:11:55;;;;;;;13.60;5.88;;;;;;;17.46;72.47;99287.25;129691;1092;114167;-64
2021/06/29 00:14:24;;;;;;;9.38;5.23;;;;;;;17.43;72.59;99290.65;129806;1093;22875;-64
2021/06/29 00:16:53;;;;;;;12.10;5.68;;;;;;;17.41;72.80;99298.40;129661;1093;114361;-65
2021/06/29 00:19:22;;;;;;;10.53;5.35;;;;;;;17.38;72.91;99291.56;129801;1092;22578;-64
2021/06/29 00:21:51;;;;;;;13.33;5.78;;;;;;;17.36;73.05;99304.01;129771;1093;22583;-64
2021/06/29 00:24:20;;;;;;;12.68;5.83;;;;;;;17.33;73.17;99292.48;129676;1093;113966;-64
2021/06/29 00:26:49;;;;;;;10.28;5.30;;;;;;;17.30;73.49;99290.36;129769;1092;23641;-64
2021/06/29 00:29:18;;;;;;;12.83;5.30;;;;;;;17.29;73.77;99285.98;129710;1092;114096;-64
2021/06/29 00:31:47;;;;;;;18.05;6.35;;;;;;;17.30;73.84;99284.05;129810;1092;22533;-64
2021/06/29 00:34:16;;;;;;;16.55;6.20;;;;;;;17.29;73.97;99282.41;129851;1091;22548;-64
2021/06/29 00:36:45;;;;;;;8.48;5.53;;;;;;;17.28;74.06;99284.34;129696;1093;113831;-64
2021/06/29 00:39:14;;;;;;;10.70;5.15;;;;;;;17.28;73.93;99286.28;129838;1092;22571;-64
2021/06/29 00:41:43;;;;;;;9.00;5.78;;;;;;;17.28;74.13;99295.36;129661;1093;113964;-64
2021/06/29 00:44:24;;;;;;;7.10;5.23;;;;;;;17.28;74.20;99287.09;129804;1093;22602;-64
2021/06/29 00:46:54;;;;;;;6.60;5.08;;;;;;;17.27;74.28;99284.66;129654;1092;113957;-64
2021/06/29 00:49:22;;;;;;;10.08;4.88;;;;;;;17.26;74.34;99285.77;129821;1093;22981;-64
2021/06/29 00:51:51;;;;;;;11.95;5.10;;;;;;;17.26;74.52;99292.09;129839;1093;22598;-63
2021/06/29 00:54:20;;;;;;;5.55;4.53;;;;;;;17.27;74.50;99287.41;129652;1092;114203;-62
2021/06/29 00:56:49;;;;;;;7.05;4.58;;;;;;;17.28;74.63;99300.05;129821;1092;22561;-62
2021/06/29 00:59:18;;;;;;;10.30;5.10;;;;;;;17.31;74.81;99294.72;129689;1092;113918;-63
2021/06/29 01:01:47;;;;;;;6.38;4.65;;;;;;;17.36;74.90;99296.56;129833;1092;22570;-63
2021/06/29 01:04:16;;;;;;;8.83;5.63;;;;;;;17.42;74.76;99294.52;129803;1093;23544;-63
2021/06/29 01:06:45;;;;;;;5.90;4.90;;;;;;;17.47;74.67;99294.39;129713;1093;113521;-63
2021/06/29 01:09:13;;;;;;;6.93;4.58;;;;;;;17.52;74.65;99295.11;129766;1092;22567;-63
2021/06/29 01:11:42;;;;;;;9.55;5.03;;;;;;;17.58;74.60;99301.33;129703;1092;113799;-63
2021/06/29 01:14:12;;;;;;;8.50;4.60;;;;;;;17.62;74.27;99294.88;129762;1093;22553;-63
2021/06/29 01:16:41;;;;;;;5.63;5.03;;;;;;;17.65;74.26;99299.80;129713;1093;113888;-63
2021/06/29 01:19:11;;;;;;;7.70;4.88;;;;;;;17.69;74.34;99299.19;129751;1092;22557;-63
2021/06/29 01:21:42;;;;;;;6.40;4.95;;;;;;;17.71;74.13;99305.20;129788;1093;22542;-63
2021/06/29 01:24:19;;;;;;;7.33;5.13;;;;;;;17.73;74.13;99308.47;129651;1093;113805;-63
2021/06/29 01:26:57;;;;;;;6.75;4.63;;;;;;;17.75;73.99;99304.26;129847;1092;22544;-63
2021/06/29 01:32:14;;;;;;;8.45;5.45;;;;;;;17.80;74.00;99304.16;129806;1092;23006;-63
2021/06/29 01:34:43;;;;;;;6.10;4.55;;;;;;;17.83;73.84;99303.53;129688;1092;114221;-63
2021/06/29 01:37:12;;;;;;;7.20;4.88;;;;;;;17.85;73.59;99293.02;129795;1093;22676;-63
2021/06/29 01:39:52;;;;;;;7.08;4.65;;;;;;;17.86;73.67;99291.08;129771;1093;23170;-63
2021/06/29 01:42:21;;;;;;;8.33;5.00;;;;;;;17.84;73.64;99294.14;129707;1093;113760;-63
2021/06/29 01:44:50;;;;;;;6.05;4.63;;;;;;;17.83;73.46;99289.75;129786;1092;23062;-63
2021/06/29 01:47:29;;;;;;;5.45;4.95;;;;;;;17.77;73.56;99290.98;129726;1093;113938;-63
2021/06/29 01:50:06;;;;;;;8.65;5.03;;;;;;;17.72;73.71;99288.37;129762;1093;23398;-63
2021/06/29 01:52:36;;;;;;;6.65;5.03;;;;;;;17.68;74.12;99298.38;129716;1092;113874;-63
2021/06/29 01:55:05;;;;;;;6.48;4.95;;;;;;;17.64;73.91;99294.59;129793;1093;22564;-63
2021/06/29 01:57:40;;;;;;;6.25;4.75;;;;;;;17.62;74.09;99299.56;129802;1093;22599;-63
2021/06/29 02:00:13;;;;;;;7.25;5.40;;;;;;;17.57;74.23;99303.27;129678;1093;114049;-63
2021/06/29 02:02:42;;;;;;;8.70;5.40;;;;;;;17.54;74.33;99309.39;129817;1093;22552;-63
2021/06/29 02:05:12;;;;;;;8.30;5.10;;;;;;;17.53;74.36;99304.19;129667;1093;114174;-63
2021/06/29 02:07:40;;;;;;;6.53;5.70;;;;;;;17.51;74.37;99300.92;129807;1093;22590;-63
2021/06/29 02:10:10;;;;;;;9.80;5.63;;;;;;;17.52;74.58;99297.05;129773;1093;22585;-63
2021/06/29 02:12:39;;;;;;;6.80;5.75;;;;;;;17.50;74.56;99291.03;129747;1093;113935;-63
2021/06/29 02:15:08;;;;;;;7.88;5.20;;;;;;;17.49;74.71;99292.97;129834;1093;22559;-63
2021/06/29 02:17:37;;;;;;;10.03;6.00;;;;;;;17.48;74.91;99290.52;129699;1093;114948;-63
2021/06/29 02:20:07;;;;;;;5.53;4.63;;;;;;;17.43;74.90;99288.71;129810;1093;22564;-63
2021/06/29 02:22:36;;;;;;;6.18;5.58;;;;;;;17.43;75.21;99285.14;129667;1093;113684;-63
2021/06/29 02:25:05;;;;;;;6.40;5.50;;;;;;;17.45;75.24;99288.41;129839;1092;22603;-63
2021/06/29 02:27:34;;;;;;;5.65;4.93;;;;;;;17.48;75.30;99288.58;129769;1093;23099;-64
2021/06/29 02:30:04;;;;;;;6.15;4.90;;;;;;;17.50;75.27;99286.34;129731;1093;115025;-64
2021/06/29 02:32:32;;;;;;;6.53;4.68;;;;;;;17.52;75.53;99280.52;129752;1093;22570;-64
2021/06/29 02:35:02;;;;;;;7.13;5.50;;;;;;;17.56;75.56;99278.78;129692;1093;113849;-64
2021/06/29 02:37:33;;;;;;;7.98;5.05;;;;;;;17.60;75.53;99283.34;129830;1093;22607;-63
2021/06/29 02:40:03;;;;;;;10.53;6.28;;;;;;;17.66;75.53;99287.66;129830;1093;22571;-63
2021/06/29 02:42:32;;;;;;;6.65;5.50;;;;;;;17.74;75.38;99288.06;129638;1092;114230;-62
2021/06/29 02:45:07;;;;;;;5.83;5.00;;;;;;;17.81;75.24;99294.76;129796;1093;22551;-62
2021/06/29 02:47:36;;;;;;;7.68;5.25;;;;;;;17.88;75.42;99292.41;129715;1093;115169;-62
2021/06/29 02:50:06;;;;;;;5.60;5.08;;;;;;;17.96;75.20;99290.83;129805;1093;22592;-62
2021/06/29 02:52:36;;;;;;;5.20;4.68;;;;;;;18.03;74.99;99294.77;129647;1093;113919;-63
2021/06/29 02:55:07;;;;;;;6.48;5.80;;;;;;;18.09;74.62;99289.95;129825;1093;23323;-62
2021/06/29 02:57:36;;;;;;;10.05;5.55;;;;;;;18.17;74.50;99291.16;129759;1093;22541;-62
2021/06/29 03:00:06;;;;;;;9.28;5.60;;;;;;;18.25;74.26;99293.16;129696;1093;113950;-64
2021/06/29 03:02:35;;;;;;;6.88;5.33;;;;;;;18.31;73.90;99295.48;129801;1093;22585;-64
2021/06/29 03:05:04;;;;;;;8.20;5.50;;;;;;;18.39;73.73;99296.66;129678;1093;114233;-64
2021/06/29 03:07:37;;;;;;;7.73;5.60;;;;;;;18.48;73.51;99308.55;129754;1093;22565;-64
2021/06/29 03:10:06;;;;;;;7.05;5.80;;;;;;;18.55;73.38;99303.41;129821;1093;22587;-64
2021/06/29 03:12:35;;;;;;;7.70;6.10;;;;;;;18.63;73.06;99304.61;129668;1093;113758;-63
2021/06/29 03:15:05;;;;;;;7.93;5.95;;;;;;;18.70;72.95;99299.46;129799;1093;22573;-64
2021/06/29 03:17:34;;;;;;;7.40;5.43;;;;;;;18.78;72.77;99303.39;129695;1093;113789;-64
2021/06/29 03:20:05;;;;;;;10.58;5.30;;;;;;;18.88;73.02;99311.41;129797;1092;22536;-63
2021/06/29 03:22:34;;;;;;;9.93;5.70;;;;;;;18.96;72.60;99316.14;129694;1092;118124;-63
2021/06/29 03:25:03;;;;;;;6.70;5.03;;;;;;;19.04;72.29;99327.21;129785;1092;22571;-63
2021/06/29 03:27:31;;;;;;;9.08;5.55;;;;;;;19.13;72.14;99321.74;129814;1093;22586;-63
2021/06/29 03:30:01;;;;;;;11.80;6.10;;;;;;;19.20;71.77;99324.02;129669;1092;113843;-63
2021/06/29 03:32:30;;;;;;;8.25;6.03;;;;;;;19.27;71.35;99318.86;129801;1093;23324;-63
2021/06/29 03:34:59;;;;;;;8.08;5.48;;;;;;;19.33;71.22;99318.38;129667;1093;114144;-63
2021/06/29 03:37:28;;;;;;;10.60;5.73;;;;;;;19.39;70.61;99319.05;129805;1093;22519;-63
2021/06/29 03:39:57;;;;;;;7.90;5.50;;;;;;;19.48;70.74;99330.16;129783;1093;22626;-63
2021/06/29 03:42:26;;;;;;;6.80;5.23;;;;;;;19.54;70.46;99324.16;129701;1093;113870;-63
2021/06/29 03:44:55;;;;;;;9.43;4.50;;;;;;;19.62;70.19;99325.33;129770;1092;22541;-63
2021/06/29 03:47:23;;;;;;;9.05;5.45;;;;;;;19.69;70.17;99336.71;129697;1093;113855;-63
2021/06/29 03:49:52;;;;;;;7.60;5.53;;;;;;;19.75;70.07;99327.95;129755;1093;23299;-63
2021/06/29 03:52:21;;;;;;;7.98;5.15;;;;;;;19.81;69.89;99323.06;129798;1092;22553;-63
2021/06/29 03:54:50;;;;;;;7.38;5.25;;;;;;;19.85;69.60;99324.05;129694;1093;113685;-63
2021/06/29 03:57:19;;;;;;;7.83;5.08;;;;;;;19.87;69.24;99327.31;129834;1092;22564;-63
2021/06/29 03:59:48;;;;;;;5.60;4.95;;;;;;;19.89;68.86;99322.27;129670;1092;113979;-63
2021/06/29 04:02:17;;;;;;;8.80;5.80;;;;;;;19.93;68.97;99314.94;129792;1093;23071;-63
2021/06/29 04:04:46;;;;;;;10.35;4.88;;;;;;;19.96;68.95;99314.29;129676;1093;114316;-63
2021/06/29 04:07:15;;;;;;;10.58;5.65;;;;;;;20.02;68.76;99317.72;129815;1093;22533;-63
2021/06/29 04:09:44;;;;;;;7.20;5.28;;;;;;;20.05;68.60;99317.86;129761;1093;22526;-63
2021/06/29 04:12:14;;;;;;;11.78;6.13;;;;;;;20.11;68.57;99318.52;129696;1093;115742;-61
2021/06/29 04:14:42;;;;;;;9.80;6.60;;;;;;;20.13;68.49;99317.06;129793;1093;22601;-63
2021/06/29 04:17:11;;;;;;;6.55;5.90;;;;;;;20.16;68.47;99323.09;129634;1093;114956;-61
2021/06/29 04:19:41;;;;;;;11.78;5.60;;;;;;;20.19;68.57;99320.48;129807;1093;23253;-61
2021/06/29 04:22:09;;;;;;;9.53;5.15;;;;;;;20.23;68.20;99320.63;129775;1092;22579;-61
2021/06/29 04:24:38;;;;;;;6.08;4.68;;;;;;;20.25;67.77;99313.63;129704;1093;113910;-61
2021/06/29 04:27:07;;;;;;;6.73;4.80;;;;;;;20.27;67.95;99319.66;129740;1093;22550;-62
2021/06/29 04:29:36;;;;;;;10.68;5.30;;;;;;;20.31;67.98;99320.64;129691;1092;113927;-61
2021/06/29 04:32:45;;;;;;;6.33;5.43;;;;;;;20.36;68.04;99314.95;125580;1093;22768;-63
2021/06/29 04:35:14;;;;;;;17.95;6.30;;;;;;;20.40;67.71;99309.58;125311;1093;113704;-61
2021/06/29 04:37:43;;;;;;;11.30;5.35;;;;;;;20.44;68.10;99311.37;125136;1093;22786;-61
2021/06/29 04:40:12;;;;;;;8.05;5.80;;;;;;;20.46;68.31;99311.05;125284;1093;22770;-61
2021/06/29 04:42:42;;;;;;;12.23;5.68;;;;;;;20.49;68.22;99309.58;129712;1093;113476;-61
2021/06/29 04:45:12;;;;;;;14.68;5.28;;;;;;;20.50;68.47;99311.98;129815;1092;22630;-61
2021/06/29 04:47:46;;;;;;;9.23;5.23;;;;;;;20.51;68.62;99307.27;129652;1093;113659;-61
2021/06/29 04:50:15;;;;;;;10.28;5.38;;;;;;;20.52;68.19;99308.89;129807;1093;22542;-61
2021/06/29 04:52:44;;;;;;;9.03;5.63;;;;;;;20.51;68.26;99307.27;129678;1093;113996;-61
2021/06/29 04:55:14;;;;;;;8.68;5.45;;;;;;;20.52;68.04;99306.13;129811;1093;22531;-62
2021/06/29 04:57:43;;;;;;;10.65;5.83;;;;;;;20.53;67.90;99307.76;129777;1092;22587;-61
2021/06/29 05:00:17;;;;;;;7.60;6.83;;;;;;;20.53;67.93;99311.34;129684;1092;114173;-62
2021/06/29 05:02:45;;;;;;;11.85;7.03;;;;;;;20.53;68.17;99313.30;129803;1093;22625;-61
2021/06/29 05:05:15;;;;;;;17.15;7.65;;;;;;;20.52;67.80;99319.97;129699;1093;113744;-62
2021/06/29 05:07:45;;;;;;;11.75;7.18;;;;;;;20.53;68.02;99314.11;129814;1093;22551;-61
2021/06/29 05:10:14;;;;;;;10.48;7.03;;;;;;;20.56;68.15;99312.64;129821;1092;22549;-61
2021/06/29 05:12:48;;;;;;;23.05;6.60;;;;;;;20.60;68.01;99305.31;129669;1092;113803;-61
2021/06/29 05:15:17;;;;;;;7.90;5.85;;;;;;;20.69;67.81;99306.09;129842;1092;22547;-61
2021/06/29 05:17:46;;;;;;;10.15;6.18;;;;;;;20.85;67.31;99309.14;129664;1093;113656;-61
2021/06/29 05:20:15;;;;;;;8.98;6.40;;;;;;;21.02;66.89;99307.13;129798;1092;22629;-66
2021/06/29 05:22:44;;;;;;;7.88;5.45;;;;;;;21.20;66.28;99301.55;129664;1092;114007;-64
2021/06/29 05:25:13;;;;;;;8.20;5.05;;;;;;;21.35;65.84;99298.20;129797;1093;23731;-64
2021/06/29 05:27:42;;;;;;;10.03;5.20;;;;;;;21.51;65.46;99302.80;129728;1092;22578;-62
2021/06/29 05:30:11;;;;;;;10.20;5.58;;;;;;;21.70;65.14;99301.55;129649;1092;115308;-62
2021/06/29 05:32:40;;;;;;;10.33;5.15;;;;;;;21.92;64.96;99297.66;129818;1093;23083;-63
2021/06/29 05:35:09;;;;;;;12.25;5.73;;;;;;;22.16;63.68;99290.28;129611;1092;114071;-63
2021/06/29 05:37:38;;;;;;;14.30;6.15;;;;;;;22.40;63.30;99286.77;129813;1093;22516;-63
2021/06/29 05:40:07;;;;;;;13.50;5.83;;;;;;;;;;129741;1093;22563;-61
2021/06/29 05:42:36;;;;;;;9.38;5.50;;;;;;;22.90;61.31;99299.67;129725;1093;87139;-63
2021/06/29 05:45:12;;;;;;;10.25;5.53;;;;;;;23.09;60.38;99302.67;129725;1093;22564;-63
2021/06/29 05:47:42;;;;;;;8.83;6.65;;;;;;;23.25;60.26;99303.61;129688;1093;113849;-66
2021/06/29 05:50:12;;;;;;;14.10;5.45;;;;;;;23.40;59.80;99302.11;129749;1093;22547;-67
2021/06/29 05:52:41;;;;;;;13.85;5.93;;;;;;;23.53;59.77;99300.96;129686;1093;115402;-67
2021/06/29 05:55:10;;;;;;;8.93;4.70;;;;;;;23.62;59.15;99300.86;129786;1092;22548;-66
2021/06/29 05:57:39;;;;;;;8.73;5.65;;;;;;;23.69;58.69;99300.25;129794;1093;22585;-67
2021/06/29 06:00:10;;;;;;;10.47;6.07;;;;;;;23.75;58.42;99301.64;129627;1092;114402;-67
2021/06/29 06:02:43;;;;;;;7.33;5.73;;;;;;;23.81;58.37;99300.22;129789;1092;23080;-67
2021/06/29 06:05:11;;;;;;;12.80;5.50;;;;;;;23.82;57.80;99296.28;129641;1093;113233;-68
2021/06/29 06:07:40;;;;;;;8.38;4.98;;;;;;;23.84;58.03;99299.52;129802;1093;22580;-68
2021/06/29 06:10:10;;;;;;;13.45;5.45;;;;;;;23.87;58.34;99285.72;129737;1092;22546;-67
2021/06/29 06:12:39;;;;;;;7.05;4.63;;;;;;;23.90;58.31;99295.34;129712;1093;114855;-67
2021/06/29 06:15:11;;;;;;;10.05;5.83;;;;;;;23.95;57.88;99281.98;129780;1093;23233;-65
2021/06/29 06:17:41;;;;;;;9.63;5.93;;;;;;;24.00;57.96;99294.84;129690;1093;113162;-67
2021/06/29 06:20:11;;;;;;;13.18;4.85;;;;;;;24.04;58.05;99295.77;129772;1093;22561;-67
2021/06/29 06:22:40;;;;;;;5.55;4.93;;;;;;;24.09;58.11;99298.31;129695;1093;115204;-67
2021/06/29 06:25:08;;;;;;;6.55;4.70;;;;;;;24.13;57.42;99304.77;129745;1092;22800;-67
2021/06/29 06:27:37;;;;;;;8.48;4.70;;;;;;;24.18;57.17;99300.94;129784;1092;22556;-66
2021/06/29 06:30:07;;;;;;;6.15;4.75;;;;;;;24.21;57.07;99292.70;129648;1093;114082;-67
2021/06/29 06:32:36;;;;;;;6.68;5.15;;;;;;;24.24;57.08;99293.97;129762;1093;22579;-67
2021/06/29 06:35:05;;;;;;;6.98;4.50;;;;;;;24.28;56.33;99300.45;129649;1093;113664;-67
2021/06/29 06:37:34;;;;;;;5.65;4.50;;;;;;;24.31;56.23;99294.19;129721;1093;22628;-67
2021/06/29 06:40:04;;;;;;;6.35;3.95;;;;;;;24.34;56.29;99289.88;129813;1093;22538;-67
2021/06/29 06:42:33;;;;;;;10.98;4.73;;;;;;;24.37;56.17;99294.75;129676;1093;113663;-66
2021/06/29 06:45:04;;;;;;;5.05;3.75;;;;;;;24.43;55.98;99293.31;129829;1093;22562;-67
2021/06/29 06:47:37;;;;;;;5.20;4.10;;;;;;;24.50;55.21;99287.95;129690;1093;113835;-64
2021/06/29 06:50:07;;;;;;;3.78;3.33;;;;;;;24.51;53.27;99286.79;129835;1092;22562;-65
2021/06/29 06:52:38;;;;;;;7.80;3.35;;;;;;;24.49;53.97;99287.14;129651;1092;113648;-65
2021/06/29 06:55:07;;;;;;;4.10;3.70;;;;;;;24.52;54.57;99282.84;129813;1093;22602;-65
2021/06/29 06:57:36;;;;;;;6.48;3.83;;;;;;;24.58;54.09;99281.39;129765;1092;22549;-65
2021/06/29 07:00:05;;;;;;;4.90;3.30;;;;;;;24.65;54.12;99285.20;129681;1093;114112;-65
2021/06/29 07:02:34;;;;;;;4.73;3.78;;;;;;;24.72;53.51;99286.53;129734;1093;22623;-65
2021/06/29 07:05:07;;;;;;;6.90;3.80;;;;;;;24.79;53.65;99281.97;129706;1093;113902;-65
2021/06/29 07:07:35;;;;;;;7.70;3.98;;;;;;;24.81;52.89;99282.43;129782;1093;22529;-65
2021/06/29 07:10:06;;;;;;;4.43;3.90;;;;;;;24.83;53.43;99282.05;129753;1092;22545;-65
2021/06/29 07:12:34;;;;;;;15.95;4.30;;;;;;;24.86;54.20;99273.78;129624;1093;113582;-67
2021/06/29 07:15:08;;;;;;;4.05;3.45;;;;;;;24.89;53.45;99281.43;129833;1093;22564;-65
2021/06/29 07:17:37;;;;;;;11.25;4.10;;;;;;;24.93;53.30;99275.95;129661;1093;113643;-65
2021/06/29 07:20:07;;;;;;;7.88;3.85;;;;;;;24.96;53.76;99284.42;129799;1093;22526;-65
2021/06/29 07:22:36;;;;;;;6.50;4.33;;;;;;;25.00;54.00;99285.33;129604;1092;113699;-65
2021/06/29 07:25:09;;;;;;;7.00;3.85;;;;;;;25.04;52.47;99292.98;130082;1093;22661;-66
2021/06/29 07:27:38;;;;;;;7.55;3.78;;;;;;;25.04;51.59;99291.00;130041;1092;22583;-65
2021/06/29 07:30:08;;;;;;;4.08;3.40;;;;;;;25.02;51.19;99296.12;129981;1093;113649;-65
2021/06/29 07:32:41;;;;;;;5.35;3.88;;;;;;;25.03;51.51;99285.78;130071;1092;22578;-65
2021/06/29 07:35:11;;;;;;;5.43;4.10;;;;;;;25.06;52.48;99291.45;129994;1093;113815;-65
2021/06/29 07:37:40;;;;;;;8.03;4.25;;;;;;;25.11;52.67;99281.98;130070;1093;22648;-65
2021/06/29 07:40:09;;;;;;;5.78;4.28;;;;;;;25.18;52.00;99288.56;129942;1093;22602;-65
2021/06/29 07:42:39;;;;;;;7.28;3.85;;;;;;;25.24;50.43;99289.11;129984;1093;113662;-65
2021/06/29 07:45:09;;;;;;;7.03;3.70;;;;;;;25.24;51.40;99284.34;130058;1093;22646;-65
2021/06/29 07:47:37;;;;;;;10.93;3.58;;;;;;;25.29;52.09;99286.02;130030;1093;114013;-65
2021/06/29 07:50:08;;;;;;;9.33;3.85;;;;;;;25.34;51.91;99292.15;130055;1092;22551;-65
2021/06/29 07:52:37;;;;;;;29.40;5.80;;;;;;;25.41;50.98;99291.49;129935;1092;113786;-65
2021/06/29 07:55:12;;;;;;;12.33;4.33;;;;;;;25.50;51.55;99277.37;130044;1092;22554;-65
2021/06/29 07:57:41;;;;;;;8.08;3.53;;;;;;;25.55;51.42;99269.50;130065;1092;22548;-60
2021/06/29 08:00:10;;;;;;;5.15;4.05;;;;;;;25.57;51.30;99278.33;129944;1093;116296;-61
2021/06/29 08:02:39;;;;;;;6.88;2.98;;;;;;;25.55;50.30;99272.30;130103;1093;22570;-60
2021/06/29 08:05:08;;;;;;;3.80;3.50;;;;;;;25.55;49.73;99279.86;129979;1092;113772;-61
2021/06/29 08:07:37;;;;;;;5.90;3.28;;;;;;;25.51;48.97;99282.59;130136;1093;22683;-61
2021/06/29 08:10:07;;;;;;;5.25;3.28;;;;;;;25.47;48.86;99281.69;130079;1093;22705;-61
2021/06/29 08:12:36;;;;;;;3.40;3.00;;;;;;;25.36;47.11;99283.42;130011;1093;114658;-61
2021/06/29 08:15:06;;;;;;;5.25;3.00;;;;;;;25.25;47.03;99285.13;130067;1093;22527;-61
2021/06/29 08:17:40;;;;;;;4.33;2.90;;;;;;;25.19;47.76;99281.01;129988;1093;113641;-61
2021/06/29 08:20:10;;;;;;;5.05;3.10;;;;;;;25.15;48.53;99280.91;130081;1093;22595;-61
2021/06/29 08:22:38;;;;;;;15.98;3.63;;;;;;;25.09;50.88;99278.77;130050;1091;113744;-61
2021/06/29 08:25:08;;;;;;;10.38;3.15;;;;;;;24.99;51.64;99278.13;130104;1093;22572;-64
2021/06/29 08:27:38;;;;;;;5.65;3.55;;;;;;;24.91;52.48;99278.29;130142;1093;23315;-61
2021/06/29 08:30:07;;;;;;;6.98;3.15;;;;;;;24.84;53.60;99289.23;129982;1092;113016;-61
2021/06/29 08:32:38;;;;;;;6.55;3.58;;;;;;;24.72;52.22;99284.56;130106;1092;22654;-61
2021/06/29 08:35:07;;;;;;;8.88;3.58;;;;;;;24.58;53.23;99284.18;129980;1092;114405;-61
2021/06/29 08:37:37;;;;;;;3.68;3.35;;;;;;;24.45;55.13;99285.41;130124;1093;22560;-61
2021/06/29 08:40:08;;;;;;;8.15;3.68;;;;;;;24.32;56.02;99290.23;130103;1092;22525;-61
2021/06/29 08:42:37;;;;;;;9.75;3.88;;;;;;;24.24;57.14;99286.42;129997;1093;113773;-60
2021/06/29 08:45:08;;;;;;;9.20;3.83;;;;;;;24.24;58.02;99277.27;130107;1093;22551;-60
2021/06/29 08:47:38;;;;;;;3.70;2.93;;;;;;;24.26;55.69;99284.09;129699;1092;113848;-61
2021/06/29 08:50:09;;;;;;;9.38;3.65;;;;;;;24.32;53.14;99284.67;130110;1093;22625;-61
2021/06/29 08:52:38;;;;;;;4.55;3.00;;;;;;;24.38;53.60;99282.45;129946;1093;113731;-61
2021/06/29 08:55:10;;;;;;;3.45;2.65;;;;;;;24.44;53.61;99286.58;129879;1092;22650;-61
2021/06/29 08:57:39;;;;;;;4.30;2.60;;;;;;;24.52;52.97;99280.86;130128;1093;22574;-58
2021/06/29 09:00:10;;;;;;;5.88;3.23;;;;;;;24.63;53.49;99275.57;130017;1092;113799;-58
2021/06/29 09:02:41;;;;;;;3.75;2.80;;;;;;;24.76;52.47;99265.97;130089;1093;22536;-58
2021/06/29 09:05:23;;;;;;;7.80;2.80;;;;;;;24.90;51.52;99266.33;129982;1093;114887;-58
2021/06/29 09:08:06;;;;;;;4.13;2.70;;;;;;;25.05;50.78;99256.38;130073;1092;22531;-58
2021/06/29 09:10:36;;;;;;;3.88;2.53;;;;;;;25.18;49.14;99251.50;129996;1091;113890;-58
2021/06/29 09:13:05;;;;;;;8.68;3.33;;;;;;;25.27;48.79;99247.34;130047;1093;22576;-58
2021/06/29 09:15:38;;;;;;;6.88;3.38;;;;;;;25.33;49.08;99259.04;130097;1093;23456;-58
2021/06/29 09:18:07;;;;;;;11.45;3.65;;;;;;;25.30;48.66;99256.97;129950;1092;114087;-58
2021/06/29 09:20:35;;;;;;;11.08;3.53;;;;;;;25.24;48.53;99252.86;130066;1093;22570;-58
2021/06/29 09:23:25;;;;;;;9.43;3.80;;;;;;;25.16;48.78;99242.69;129963;1092;114328;-58
2021/06/29 09:26:11;;;;;;;4.53;3.38;;;;;;;25.08;49.23;99238.13;130109;1092;22616;-58
2021/06/29 09:29:00;;;;;;;10.30;3.50;;;;;;;25.02;49.79;99237.58;129963;1093;113871;-58
2021/06/29 09:31:32;;;;;;;6.73;3.25;;;;;;;25.05;50.34;99230.47;130060;1093;22560;-58
2021/06/29 09:34:05;;;;;;;5.85;3.03;;;;;;;25.12;50.19;99222.27;130030;1093;22557;-58
2021/06/29 09:36:39;;;;;;;4.93;3.10;;;;;;;25.23;49.67;99214.98;129978;1093;113823;-55
2021/06/29 09:39:12;;;;;;;7.35;3.23;;;;;;;25.38;48.48;99211.35;130104;1093;23418;-55
2021/06/29 09:41:46;;;;;;;7.53;3.58;;;;;;;25.50;48.63;99216.80;130002;1093;113832;-55
2021/06/29 09:44:20;;;;;;;4.00;3.48;;;;;;;25.61;47.89;99215.08;130048;1093;22580;-55
2021/06/29 09:46:49;;;;;;;8.88;4.15;;;;;;;25.69;46.98;99202.07;129933;1093;114958;-55
2021/06/29 09:49:20;;;;;;;8.08;3.45;;;;;;;25.74;47.18;99196.21;130056;1093;22607;-55
2021/06/29 09:51:52;;;;;;;12.75;3.33;;;;;;;25.79;47.26;99192.33;130042;1093;22606;-55
2021/06/29 09:54:22;;;;;;;4.25;3.30;;;;;;;25.82;46.80;99189.62;129954;1092;114520;-55
2021/06/29 09:56:51;;;;;;;7.08;3.10;;;;;;;25.89;48.00;99191.73;130113;1093;22655;-55
2021/06/29 09:59:25;;;;;;;4.03;3.15;;;;;;;25.99;48.00;99193.91;129928;1092;114183;-55
2021/06/29 10:02:08;;;;;;;6.75;3.48;;;;;;;26.06;47.06;99200.47;130107;1092;22714;-55
2021/06/29 10:04:38;;;;;;;6.48;3.48;;;;;;;26.13;46.44;99198.97;129934;1093;114081;-55
2021/06/29 10:07:18;;;;;;;3.23;2.93;;;;;;;26.18;46.27;99204.27;130096;1093;22558;-58
2021/06/29 10:10:14;;;;;;;8.98;2.70;;;;;;;26.20;45.58;99201.91;130035;1093;22655;-58
2021/06/29 10:12:42;;;;;;;4.78;2.88;;;;;;;26.16;45.04;99204.63;130037;1093;113592;-58
2021/06/29 10:15:12;;;;;;;7.55;2.83;;;;;;;26.09;44.73;99204.51;130038;1092;22572;-58
2021/06/29 10:17:42;;;;;;;5.25;2.45;;;;;;;26.00;44.50;99215.89;129968;1093;113807;-58
2021/06/29 10:20:24;;;;;;;6.63;2.60;;;;;;;25.93;44.25;99223.33;129830;1093;22602;-59
2021/06/29 10:22:54;;;;;;;6.25;2.80;;;;;;;25.81;43.45;99215.91;130006;1093;114843;-58
2021/06/29 10:25:23;;;;;;;3.13;2.70;;;;;;;25.70;43.38;99217.64;130050;1092;22818;-58
2021/06/29 10:27:52;;;;;;;8.55;3.43;;;;;;;25.57;43.33;99219.73;129874;1093;22612;-58
2021/06/29 10:30:26;;;;;;;9.05;3.33;;;;;;;25.48;44.15;99221.13;129927;1093;113945;-59
2021/06/29 10:32:56;;;;;;;2.65;2.43;;;;;;;25.35;44.84;99226.83;130072;1093;22576;-58
2021/06/29 10:35:25;;;;;;;5.35;2.88;;;;;;;25.27;45.25;99227.02;129920;1093;114036;-55
2021/06/29 10:37:54;;;;;;;3.95;2.95;;;;;;;25.18;47.05;99229.20;130080;1093;22589;-55
2021/06/29 10:40:23;;;;;;;10.55;3.35;;;;;;;25.02;48.53;99245.94;130036;1092;22590;-55
2021/06/29 10:42:55;;;;;;;3.45;2.28;;;;;;;24.75;49.47;99246.81;129694;1093;114902;-55
2021/06/29 10:45:33;;;;;;;5.93;1.88;;;;;;;24.37;47.99;99251.00;129726;1093;22580;-55
2021/06/29 10:48:14;;;;;;;5.33;2.03;;;;;;;24.02;49.21;99253.55;129678;1093;114146;-55
2021/06/29 10:50:44;;;;;;;7.18;2.40;;;;;;;23.72;51.21;99247.51;129774;1093;22586;-55
2021/06/29 10:53:37;;;;;;;5.28;2.48;;;;;;;23.51;52.53;99252.44;129615;1092;113988;-55
2021/06/29 10:56:17;;;;;;;9.00;3.08;;;;;;;23.32;54.88;99241.88;129712;1093;22580;-55
2021/06/29 10:58:48;;;;;;;3.85;2.73;;;;;;;23.19;56.09;99248.62;129640;1092;114445;-55
2021/06/29 11:01:30;;;;;;;5.93;3.03;;;;;;;23.11;57.61;99246.75;129690;1093;22602;-54
2021/06/29 11:04:04;;;;;;;5.35;3.20;;;;;;;23.05;58.77;99256.49;129769;1092;23238;-54
2021/06/29 11:06:34;;;;;;;7.98;3.95;;;;;;;23.02;60.15;99254.41;127017;1093;114178;-52
2021/06/29 11:09:04;;;;;;;7.20;4.00;;;;;;;23.01;60.09;99241.66;125200;1093;22775;-53
2021/06/29 11:11:33;;;;;;;7.07;4.00;;;;;;;23.00;59.77;99246.41;125064;1093;114029;-53
2021/06/29 11:14:03;;;;;;;8.25;3.88;;;;;;;23.01;60.99;99253.59;129856;1093;23844;-55
2021/06/29 11:16:53;;;;;;;6.55;3.85;;;;;;;23.02;60.59;99243.28;129711;1093;114285;-55
2021/06/29 11:19:58;;;;;;;14.63;4.65;;;;;;;23.06;61.42;99235.88;130095;1093;23020;-55
2021/06/29 11:22:49;;;;;;;8.10;3.90;;;;;;;23.13;63.06;99234.13;129645;1095;22909;-55
2021/06/29 11:25:30;;;;;;;10.90;3.73;;;;;;;23.24;63.90;99228.91;129694;1096;22583;-56
2021/06/29 11:28:28;;;;;;;11.33;3.73;;;;;;;23.36;60.88;99220.58;129669;1096;22545;-56
2021/06/29 11:31:07;;;;;;;5.78;3.25;;;;;;;23.49;58.28;99218.58;129625;1095;115172;-56
2021/06/29 11:33:42;;;;;;;3.80;2.93;;;;;;;23.64;57.71;99214.28;129744;1096;23082;-56
2021/06/29 11:36:23;;;;;;;5.43;3.10;;;;;;;23.75;57.75;99207.86;129663;1096;114435;-59
2021/06/29 11:38:53;;;;;;;5.68;3.55;;;;;;;23.87;57.18;99213.38;129719;1095;22602;-59
2021/06/29 11:41:32;;;;;;;5.20;3.45;;;;;;;23.97;56.70;99212.86;129670;1095;114361;-60